Mammoth Cave National Park, KY

11:49 AM CDT op 31 maart 2015 (GMT -0500)
Ridgeview Drive | | Change Station
CLOSE
Current Station
Persoonlijk weerstation
Location: Bowling Green, KY
Geometrische hoogte: 650 ft
Nabije weerstations

Hoogte 650 ft 36.99 °N, 86.52 °W | Updated 3 seconds ago

Helder
Helder
71.4 °F
Voelt als 77 °F
N
4.0
Wind Variabel Wind van ZW
Gusts 10.0 mijl/u

Vandaag
Hoog -- | Laag -- °F
--% Kans op neerslag
Gisteren
Hoog -- | Laag -- °F
Precip. -- inches
6:33 AM 7:07 PM
Wassende maan, 87% visible
Druk 29.94 inches
Zicht 10.0 mijlen
Wolken Helder
Warmteindex 77 °F
Dauwpunt 53 °F
Vochtigheid 53%
Neerslag 0.00 inches
Dikte sneeuw Niet beschikbaar.
UV 7 van de 12
Pollen 10.20 van de 12
Luchtkwaliteit Niet beschikbaar.
Flu Activity Niet beschikbaar.
METAR KBWG 311553Z AUTO 25012G20KT 10SM CLR 21/09 A2994 RMK AO2 SLP138 T02110094

More Conditions Fewer Conditions

Druk 29.94 inches
Zicht 10.0 mijlen
Wolken Helder
Warmteindex 77 °F
Dauwpunt 53 °F
Vochtigheid 53%
Neerslag 0.00 inches
Dikte sneeuw Niet beschikbaar.
UV 7 van de 12
Pollen 10.20 van de 12
Luchtkwaliteit Niet beschikbaar.
Flu Activity Niet beschikbaar.
METAR KBWG 311553Z AUTO 25012G20KT 10SM CLR 21/09 A2994 RMK AO2 SLP138 T02110094

More Conditions Fewer Conditions

10-Day Weather Forecast

Almanac

Astronomie

Mar. 31, 2015 Opkomst Ondergang
Werkelijke tijd
Burgerlijke schemering
Nautische schemering
Astronomische schemering
Maan
Golflengte van het zichtbare licht
Daglengte
Tomorrow will be .
, % of the Moon is Illuminated

Extremen vandaag

State Highs State Lows

Community

WunderPhotos

Upload Photos

1,809,787 foto’s ge-upload!

WunderBlogs® & News

Nearby

Luchtkwaliteit

  Luchtkwaliteit LK-index Verontreinigende stof
Not available.

Dikte sneeuw

Station Depth Geometrische hoogte

Aardbevingen

Stad Distance Mag. Time & Date
Minimum magnitude displayed is 2.5.

Watertemperatuur langs de kust

Plaats Temperatuur

Stations

Nabije weerstations

Locatie station Temp. Gevoelstemperatuur Dauwpunt Vochtigheid Wind Precip. Hoogte Geactualiseerd Type